Map

Track Data

SID SEASON NUMBER BASIN SUBBASIN NAME ISO_TIME NATURE LAT LON WMO_WIND WMO_PRES WMO_AGENCY TRACK_TYPE DIST2LAND LANDFALL IFLAG USA_AGENCY USA_ATCF_ID USA_LAT USA_LON USA_RECORD USA_STATUS USA_WIND USA_PRES USA_SSHS USA_R34_NE USA_R34_SE USA_R34_SW USA_R34_NW USA_R50_NE USA_R50_SE USA_R50_SW USA_R50_NW USA_R64_NE USA_R64_SE USA_R64_SW USA_R64_NW USA_POCI USA_ROCI USA_RMW USA_EYE TOKYO_LAT TOKYO_LON TOKYO_GRADE TOKYO_WIND TOKYO_PRES TOKYO_R50_DIR TOKYO_R50_LONG TOKYO_R50_SHORT TOKYO_R30_DIR TOKYO_R30_LONG TOKYO_R30_SHORT TOKYO_LAND CMA_LAT CMA_LON CMA_CAT CMA_WIND CMA_PRES HKO_LAT HKO_LON HKO_CAT HKO_WIND HKO_PRES NEWDELHI_LAT NEWDELHI_LON NEWDELHI_GRADE NEWDELHI_WIND NEWDELHI_PRES NEWDELHI_CI NEWDELHI_DP NEWDELHI_POCI REUNION_LAT REUNION_LON REUNION_TYPE REUNION_WIND REUNION_PRES REUNION_TNUM REUNION_CI REUNION_RMW REUNION_R34_NE REUNION_R34_SE REUNION_R34_SW REUNION_R34_NW REUNION_R50_NE REUNION_R50_SE REUNION_R50_SW REUNION_R50_NW REUNION_R64_NE REUNION_R64_SE REUNION_R64_SW REUNION_R64_NW BOM_LAT BOM_LON BOM_TYPE BOM_WIND BOM_PRES BOM_TNUM BOM_CI BOM_RMW BOM_R34_NE BOM_R34_SE BOM_R34_SW BOM_R34_NW BOM_R50_NE BOM_R50_SE BOM_R50_SW BOM_R50_NW BOM_R64_NE BOM_R64_SE BOM_R64_SW BOM_R64_NW BOM_ROCI BOM_POCI BOM_EYE BOM_POS_METHOD BOM_PRES_METHOD NADI_LAT NADI_LON NADI_CAT NADI_WIND NADI_PRES WELLINGTON_LAT WELLINGTON_LON WELLINGTON_WIND WELLINGTON_PRES DS824_LAT DS824_LON DS824_STAGE DS824_WIND DS824_PRES TD9636_LAT TD9636_LON TD9636_STAGE TD9636_WIND TD9636_PRES TD9635_LAT TD9635_LON TD9635_WIND TD9635_PRES TD9635_ROCI NEUMANN_LAT NEUMANN_LON NEUMANN_CLASS NEUMANN_WIND NEUMANN_PRES MLC_LAT MLC_LON MLC_CLASS MLC_WIND MLC_PRES USA_GUST BOM_GUST BOM_GUST_PER REUNION_GUST REUNION_GUST_PER USA_SEAHGT USA_SEARAD_NE USA_SEARAD_SE USA_SEARAD_SW USA_SEARAD_NW STORM_SPEED STORM_DIR
1934183S20157 1935 29 SP EA NOT_NAMED 1934-07-01 12:00:00 NR -20.0000 157.400 main 682 666 __________O___ -1 -20.0000 157.400 7 3 203
1934183S20157 1935 29 SP EA NOT_NAMED 1934-07-01 15:00:00 NR -20.1544 157.325 main 658 642 __________P___ -1 -20.1544 157.325 7 4 204
1934183S20157 1935 29 SP EA NOT_NAMED 1934-07-01 18:00:00 NR -20.3570 157.229 main 634 610 __________P___ -1 -20.3570 157.229 7 5 203
1934183S20157 1935 29 SP EA NOT_NAMED 1934-07-01 21:00:00 NR -20.6561 157.095 main 601 553 __________P___ -1 -20.6561 157.095 7 8 203
1934183S20157 1935 29 SP EA NOT_NAMED 1934-07-02 00:00:00 NR -21.1000 156.900 main 553 490 __________O___ -1 -21.1000 156.900 7 12 202
1934183S20157 1935 29 SP EA NOT_NAMED 1934-07-02 03:00:00 NR -21.7213 156.638 main 483 414 __________P___ -1 -21.7213 156.638 7 15 200
1934183S20157 1935 29 SP EA NOT_NAMED 1934-07-02 06:00:00 NR -22.4910 156.359 main 407 329 __________P___ -1 -22.4910 156.359 7 17 196
1934183S20157 1935 29 SP EA NOT_NAMED 1934-07-02 09:00:00 NR -23.3650 156.124 main 324 277 __________P___ -1 -23.3650 156.124 7 18 190
1934183S20157 1935 29 SP EA NOT_NAMED 1934-07-02 12:00:00 NR -24.3000 156.000 main 273 261 __________O___ -1 -24.3000 156.000 7 19 184
1934183S20157 1935 29 SP EA NOT_NAMED 1934-07-02 15:00:00 NR -25.2547 155.959 main 263 263 __________P___ -1 -25.2547 155.959 7 20 179
1934183S20157 1935 29 SP EA NOT_NAMED 1934-07-02 18:00:00 NR -26.2533 156.053 main 298 288 __________P___ -1 -26.2533 156.053 7 20 171
1934183S20157 1935 29 SP EA NOT_NAMED 1934-07-02 21:00:00 NR -27.2504 156.321 main 283 282 __________P___ -1 -27.2504 156.321 7 21 161
1934183S20157 1935 29 SP EA NOT_NAMED 1934-07-03 00:00:00 NR -28.2000 156.800 main 313 313 __________O___ -1 -28.2000 156.800 7 22 149
1934183S20157 1935 29 SP EA NOT_NAMED 1934-07-03 03:00:00 NR -29.1446 157.619 main 389 389 __________P___ -1 -29.1446 157.619 7 24 139
1934183S20157 1935 29 SP EA NOT_NAMED 1934-07-03 06:00:00 NR -30.0149 158.636 main 498 498 __________P___ -1 -30.0149 158.636 7 24 132
1934183S20157 1935 29 SP EA NOT_NAMED 1934-07-03 09:00:00 NR -30.7516 159.688 main 621 621 __________P___ -1 -30.7516 159.688 7 21 127
1934183S20157 1935 29 SP MM NOT_NAMED 1934-07-03 12:00:00 NR -31.3000 160.600 main 712 712 __________O___ -1 -31.3000 160.600 7 16 124
1934183S20157 1935 29 SP MM NOT_NAMED 1934-07-03 15:00:00 NR -31.6291 161.235 main 769 769 __________P___ -1 -31.6291 161.235 7 10 119
1934183S20157 1935 29 SP MM NOT_NAMED 1934-07-03 18:00:00 NR -31.7825 161.627 main 808 808 __________P___ -1 -31.7825 161.627 7 6 110
1934183S20157 1935 29 SP MM NOT_NAMED 1934-07-03 21:00:00 NR -31.8201 161.855 main 836 836 __________P___ -1 -31.8201 161.855 7 3 93
1934183S20157 1935 29 SP MM NOT_NAMED 1934-07-04 00:00:00 NR -31.8000 162.000 main 846 __________O___ -1 -31.8000 162.000 7 3 81

Digital Typhoon Data and Search

About IBTrACS Database

This database is a web-friendly format of International Best Track Archive for Climate Stewardship (IBTrACS), a global best track data archive curated by NOAA dating back to 1842.

Updated: 2021-12-03